createdAt,value
2022-07-26T00:01:47.434Z,7.53
2022-07-26T00:04:14.952Z,7.35
2022-07-26T00:06:42.027Z,7.30
2022-07-26T00:09:09.511Z,7.40
2022-07-26T00:11:36.986Z,7.78
2022-07-26T00:14:06.756Z,6.97
2022-07-26T00:16:35.444Z,8.15
2022-07-26T00:19:03.309Z,7.82
2022-07-26T00:21:30.982Z,7.88
2022-07-26T00:23:58.278Z,7.60
2022-07-26T00:26:25.510Z,8.18
2022-07-26T00:28:52.832Z,7.72
2022-07-26T00:31:20.112Z,7.05
2022-07-26T00:33:47.365Z,7.32
2022-07-26T00:36:14.963Z,8.18
2022-07-26T00:38:42.178Z,7.60
2022-07-26T00:41:09.481Z,7.80
2022-07-26T00:43:36.677Z,7.43
2022-07-26T00:46:03.970Z,8.40
2022-07-26T00:48:31.191Z,7.60
2022-07-26T00:50:58.536Z,7.45
2022-07-26T00:53:25.853Z,7.88
2022-07-26T00:55:53.726Z,8.13
2022-07-26T00:58:20.961Z,7.50
2022-07-26T01:00:48.618Z,8.50
2022-07-26T01:03:16.246Z,8.25
2022-07-26T01:05:43.679Z,7.72
2022-07-26T01:08:10.797Z,8.07
2022-07-26T01:10:38.328Z,8.48
2022-07-26T01:13:05.818Z,8.30
2022-07-26T01:15:33.032Z,8.25
2022-07-26T01:18:00.453Z,8.50
2022-07-26T01:20:27.671Z,8.40
2022-07-26T01:22:54.962Z,8.15
2022-07-26T01:25:33.382Z,8.57
2022-07-26T01:28:11.445Z,8.68
2022-07-26T01:30:47.607Z,8.65
2022-07-26T01:33:14.900Z,8.13
2022-07-26T01:35:42.223Z,8.82
2022-07-26T01:38:09.767Z,8.07
2022-07-26T01:40:37.146Z,8.70
2022-07-26T01:43:04.305Z,8.38
2022-07-26T01:45:32.031Z,8.70
2022-07-26T01:47:59.478Z,8.55
2022-07-26T01:50:26.634Z,8.75
2022-07-26T01:52:54.115Z,8.55
2022-07-26T01:55:21.300Z,8.50
2022-07-26T01:57:48.400Z,8.57
2022-07-26T02:00:16.121Z,8.85
2022-07-26T02:02:43.579Z,8.95
2022-07-26T02:05:11.426Z,9.07
2022-07-26T02:07:42.790Z,9.02
2022-07-26T02:10:47.474Z,8.23
2022-07-26T02:13:14.975Z,8.65
2022-07-26T02:15:42.530Z,8.70
2022-07-26T02:18:10.045Z,8.80
2022-07-26T02:20:37.265Z,8.70
2022-07-26T02:23:05.172Z,8.02
2022-07-26T02:25:32.502Z,8.25
2022-07-26T02:28:01.357Z,8.48
2022-07-26T02:30:29.301Z,8.65
2022-07-26T02:35:41.200Z,8.75
2022-07-26T02:38:11.488Z,8.10
2022-07-26T02:40:39.874Z,8.52
2022-07-26T02:43:08.648Z,8.57
2022-07-26T02:45:36.890Z,8.88
2022-07-26T02:48:12.093Z,8.63
2022-07-26T02:50:40.341Z,8.73
2022-07-26T02:53:07.506Z,9.13
2022-07-26T02:55:34.595Z,8.70
2022-07-26T02:58:01.799Z,8.50
2022-07-26T03:00:30.169Z,8.52
2022-07-26T03:02:57.874Z,9.13
2022-07-26T03:05:25.043Z,8.65
2022-07-26T03:07:52.551Z,9.02
2022-07-26T03:10:19.871Z,8.60
2022-07-26T03:12:49.012Z,8.75
2022-07-26T03:15:16.266Z,10.55
2022-07-26T03:17:44.523Z,8.65
2022-07-26T03:20:12.720Z,9.05
2022-07-26T03:22:39.930Z,9.25
2022-07-26T03:25:07.393Z,9.15
2022-07-26T03:27:35.280Z,9.05
2022-07-26T03:30:02.455Z,9.45
2022-07-26T03:32:31.430Z,9.52
2022-07-26T03:34:58.671Z,9.63
2022-07-26T03:37:25.987Z,10.50
2022-07-26T03:40:12.955Z,8.80
2022-07-26T03:42:40.081Z,9.00
2022-07-26T03:45:07.899Z,8.88
2022-07-26T03:47:35.257Z,9.25
2022-07-26T03:50:02.390Z,8.85
2022-07-26T03:52:31.283Z,8.73
2022-07-26T03:54:58.754Z,7.80
2022-07-26T03:57:28.149Z,7.78
2022-07-26T03:59:56.015Z,8.20
2022-07-26T04:02:31.615Z,7.80
2022-07-26T04:04:59.195Z,8.35
2022-07-26T04:07:27.077Z,9.43
2022-07-26T04:09:54.252Z,8.38
2022-07-26T04:12:21.460Z,8.18
2022-07-26T04:14:48.676Z,8.70
2022-07-26T04:17:15.891Z,8.75
2022-07-26T04:19:43.098Z,7.63
2022-07-26T04:22:10.306Z,8.00
2022-07-26T04:24:37.389Z,8.25
2022-07-26T04:27:04.659Z,7.35
2022-07-26T04:29:35.027Z,8.50
2022-07-26T04:32:02.078Z,8.15
2022-07-26T04:34:29.282Z,7.68
2022-07-26T04:36:56.373Z,9.00
2022-07-26T04:39:24.750Z,8.40
2022-07-26T04:41:51.866Z,8.48
2022-07-26T04:44:18.943Z,8.88
2022-07-26T04:46:46.121Z,8.68
2022-07-26T04:49:14.120Z,10.18
2022-07-26T04:51:41.439Z,8.15
2022-07-26T04:54:08.863Z,9.23
2022-07-26T04:56:36.195Z,9.00
2022-07-26T04:59:03.398Z,9.65
2022-07-26T05:01:30.581Z,8.10
2022-07-26T05:03:57.741Z,9.60
2022-07-26T05:06:25.141Z,8.43
2022-07-26T05:08:52.312Z,9.65
2022-07-26T05:11:21.882Z,8.50
2022-07-26T05:13:49.286Z,8.20
2022-07-26T05:16:16.584Z,8.57
2022-07-26T05:18:48.907Z,9.10
2022-07-26T05:21:18.502Z,9.52
2022-07-26T05:23:46.157Z,8.63
2022-07-26T05:26:13.299Z,8.75
2022-07-26T05:28:41.065Z,8.70
2022-07-26T05:31:08.863Z,8.93
2022-07-26T05:33:36.037Z,9.27
2022-07-26T05:36:03.378Z,9.20
2022-07-26T05:38:30.500Z,8.80
2022-07-26T05:40:57.617Z,9.27
2022-07-26T05:43:26.263Z,8.85
2022-07-26T05:46:09.709Z,8.88
2022-07-26T05:48:37.706Z,8.63
2022-07-26T05:51:05.200Z,8.73
2022-07-26T05:53:32.533Z,9.82
2022-07-26T05:55:59.668Z,9.10
2022-07-26T05:58:26.754Z,8.70
2022-07-26T06:00:54.068Z,8.65
2022-07-26T06:03:24.554Z,8.77
2022-07-26T06:05:54.365Z,8.88
2022-07-26T06:08:22.942Z,8.02
2022-07-26T06:10:51.091Z,8.25
2022-07-26T06:13:18.789Z,8.80
2022-07-26T06:15:46.799Z,8.25
2022-07-26T06:18:14.428Z,8.35
2022-07-26T06:20:43.738Z,9.70
2022-07-26T06:23:11.059Z,8.20
2022-07-26T06:25:38.664Z,8.77
2022-07-26T06:28:08.605Z,8.23
2022-07-26T06:30:39.963Z,8.40
2022-07-26T06:33:09.646Z,8.77
2022-07-26T06:35:39.382Z,8.80
2022-07-26T06:38:07.354Z,8.82
2022-07-26T06:40:35.251Z,8.40
2022-07-26T06:43:04.675Z,8.40
2022-07-26T06:45:34.256Z,9.27
2022-07-26T06:48:01.585Z,9.35
2022-07-26T06:50:28.806Z,9.30
2022-07-26T06:52:56.199Z,9.13
2022-07-26T06:55:23.852Z,8.05
2022-07-26T06:57:50.933Z,8.80
2022-07-26T07:00:18.919Z,9.32
2022-07-26T07:02:46.288Z,7.95
2022-07-26T07:05:13.715Z,8.95
2022-07-26T07:07:42.122Z,8.40
2022-07-26T07:10:10.722Z,8.38
2022-07-26T07:12:40.747Z,7.90
2022-07-26T07:15:08.481Z,8.63
2022-07-26T07:17:35.786Z,7.88
2022-07-26T07:20:05.124Z,7.43
2022-07-26T07:22:33.055Z,6.85
2022-07-26T07:25:01.022Z,7.03
2022-07-26T07:27:31.042Z,7.53
2022-07-26T07:29:58.354Z,7.30
2022-07-26T07:32:25.727Z,7.07
2022-07-26T07:34:53.615Z,7.22
2022-07-26T07:37:20.767Z,7.13
2022-07-26T07:39:50.450Z,7.13
2022-07-26T07:42:19.506Z,7.85
2022-07-26T07:44:47.299Z,7.38
2022-07-26T07:47:15.002Z,6.88
2022-07-26T07:49:42.401Z,7.60
2022-07-26T07:52:09.571Z,7.00
2022-07-26T07:54:36.789Z,6.85
2022-07-26T07:57:04.156Z,6.90
2022-07-26T07:59:31.363Z,6.70
2022-07-26T08:01:59.280Z,6.15
2022-07-26T08:04:26.564Z,6.82
2022-07-26T08:06:53.850Z,7.07
2022-07-26T08:09:21.596Z,6.45
2022-07-26T08:11:50.940Z,6.88
2022-07-26T08:14:19.344Z,6.72
2022-07-26T08:16:46.893Z,6.72
2022-07-26T08:19:15.457Z,6.95
2022-07-26T08:21:46.865Z,7.43
2022-07-26T08:24:14.675Z,6.97
2022-07-26T08:26:42.225Z,6.93
2022-07-26T08:29:09.471Z,6.25
2022-07-26T08:31:37.078Z,6.53
2022-07-26T08:34:04.378Z,6.93
2022-07-26T08:36:33.015Z,6.68
2022-07-26T08:39:01.725Z,6.68
2022-07-26T08:41:29.489Z,6.78
2022-07-26T08:44:05.902Z,6.60
2022-07-26T08:46:36.715Z,8.65
2022-07-26T08:49:07.853Z,6.55
2022-07-26T08:51:43.899Z,6.38
2022-07-26T08:54:13.916Z,7.20
2022-07-26T08:56:50.826Z,6.68
2022-07-26T08:59:21.758Z,7.05
2022-07-26T09:02:01.985Z,6.90
2022-07-26T09:04:43.958Z,6.97
2022-07-26T09:07:13.111Z,7.35
2022-07-26T09:10:02.990Z,6.90
2022-07-26T09:12:32.206Z,7.57
2022-07-26T09:15:03.225Z,7.20
2022-07-26T09:17:51.760Z,6.53
2022-07-26T09:20:46.328Z,6.72
2022-07-26T09:23:14.101Z,7.38
2022-07-26T09:25:44.497Z,7.25
2022-07-26T09:28:28.796Z,7.20
2022-07-26T09:31:04.401Z,7.07
2022-07-26T09:33:45.735Z,7.28
2022-07-26T09:36:12.959Z,7.18
2022-07-26T09:38:46.572Z,7.60
2022-07-26T09:41:34.817Z,7.43
2022-07-26T09:44:20.946Z,7.40
2022-07-26T09:46:57.291Z,7.40
2022-07-26T09:49:30.955Z,7.05
2022-07-26T09:52:18.410Z,7.15
2022-07-26T09:54:49.386Z,7.72
2022-07-26T09:57:22.030Z,7.57
2022-07-26T09:59:49.150Z,6.72
2022-07-26T10:02:16.335Z,6.97
2022-07-26T10:04:48.009Z,7.97
2022-07-26T10:07:15.835Z,6.82
2022-07-26T10:09:48.656Z,7.00
2022-07-26T10:12:17.375Z,7.63
2022-07-26T10:14:47.201Z,6.88
2022-07-26T10:17:31.772Z,6.80
2022-07-26T10:20:17.406Z,7.63
2022-07-26T10:22:52.046Z,7.28
2022-07-26T10:25:20.449Z,7.72
2022-07-26T10:27:56.693Z,7.05
2022-07-26T10:30:34.181Z,7.55
2022-07-26T10:33:12.952Z,7.07
2022-07-26T10:35:45.751Z,8.70
2022-07-26T10:38:23.258Z,7.90
2022-07-26T10:41:00.553Z,8.00
2022-07-26T10:43:44.239Z,7.18
2022-07-26T10:46:18.764Z,6.88
2022-07-26T10:49:09.028Z,7.15
2022-07-26T10:51:41.267Z,7.20
2022-07-26T10:54:11.279Z,7.13
2022-07-26T10:56:50.953Z,7.32
2022-07-26T10:59:54.952Z,7.22
2022-07-26T11:02:24.974Z,7.05
2022-07-26T11:05:00.989Z,7.63
2022-07-26T11:07:31.583Z,7.43
2022-07-26T11:10:00.870Z,7.50
2022-07-26T11:12:28.459Z,7.72
2022-07-26T11:14:55.554Z,6.95
2022-07-26T11:17:30.734Z,7.40
2022-07-26T11:19:58.341Z,8.50
2022-07-26T11:22:33.336Z,8.07
2022-07-26T11:25:04.362Z,7.97
2022-07-26T11:27:31.848Z,7.40
2022-07-26T11:30:05.043Z,7.25
2022-07-26T11:32:32.547Z,7.30
2022-07-26T11:35:02.387Z,7.65
2022-07-26T11:37:31.541Z,7.50
2022-07-26T11:39:58.759Z,6.80
2022-07-26T11:42:26.013Z,6.75
2022-07-26T11:44:54.143Z,7.18
2022-07-26T11:47:25.580Z,7.18
2022-07-26T11:52:41.224Z,7.30
2022-07-26T11:55:09.062Z,7.38
2022-07-26T11:57:50.879Z,6.93
2022-07-26T12:00:19.050Z,6.93
2022-07-26T12:02:46.595Z,7.22
2022-07-26T12:05:33.743Z,6.47
2022-07-26T12:08:04.528Z,6.40
2022-07-26T12:10:32.284Z,6.93
2022-07-26T12:13:14.978Z,7.00
2022-07-26T12:15:51.302Z,6.60
2022-07-26T12:18:29.929Z,6.82
2022-07-26T12:21:07.869Z,6.93
2022-07-26T12:23:50.439Z,6.43
2022-07-26T12:26:27.329Z,6.70
2022-07-26T12:28:55.766Z,6.38
2022-07-26T12:31:25.501Z,7.35
2022-07-26T12:33:53.074Z,7.05
2022-07-26T12:36:28.365Z,6.50
2022-07-26T12:38:58.239Z,7.03
2022-07-26T12:41:37.210Z,7.60
2022-07-26T12:44:06.190Z,7.18
2022-07-26T12:46:35.216Z,7.80
2022-07-26T12:49:02.953Z,7.25
2022-07-26T12:51:30.278Z,8.95
2022-07-26T12:53:57.452Z,8.15
2022-07-26T12:56:24.588Z,8.40
2022-07-26T12:58:53.248Z,8.38
2022-07-26T13:01:20.492Z,8.02
2022-07-26T13:03:47.660Z,8.10
2022-07-26T13:06:15.381Z,8.02
2022-07-26T13:08:42.448Z,8.77
2022-07-26T13:11:10.241Z,7.85
2022-07-26T13:13:37.412Z,8.10
2022-07-26T13:16:11.140Z,7.78
2022-07-26T13:18:39.176Z,8.80
2022-07-26T13:21:06.489Z,8.30
2022-07-26T13:23:35.717Z,8.07
2022-07-26T13:26:03.667Z,8.57
2022-07-26T13:28:31.489Z,8.25
2022-07-26T13:30:58.772Z,9.23
2022-07-26T13:33:27.857Z,8.60
2022-07-26T13:35:55.339Z,9.95
2022-07-26T13:38:22.495Z,8.60
2022-07-26T13:40:50.657Z,8.32
2022-07-26T13:43:17.940Z,7.93
2022-07-26T13:45:45.116Z,7.55
2022-07-26T13:48:12.487Z,8.05
2022-07-26T13:50:39.681Z,7.80
2022-07-26T13:53:07.018Z,7.90
2022-07-26T13:55:38.341Z,7.65
2022-07-26T13:58:10.266Z,7.82
2022-07-26T14:00:38.209Z,8.23
2022-07-26T14:03:05.605Z,8.18
2022-07-26T14:05:32.973Z,7.55
2022-07-26T14:08:00.191Z,7.07
2022-07-26T14:10:27.413Z,7.65
2022-07-26T14:12:54.923Z,7.10
2022-07-26T14:15:24.766Z,7.47
2022-07-26T14:17:53.211Z,6.72
2022-07-26T14:20:21.666Z,7.40
2022-07-26T14:22:53.675Z,7.43
2022-07-26T14:27:50.904Z,7.57
2022-07-26T14:30:18.382Z,6.80
2022-07-26T14:32:45.714Z,7.25
2022-07-26T14:35:13.781Z,7.18
2022-07-26T14:37:44.942Z,5.63
2022-07-26T14:40:15.460Z,6.50
2022-07-26T14:42:43.222Z,6.45
2022-07-26T14:45:11.013Z,6.32
2022-07-26T14:47:38.630Z,6.18
2022-07-26T14:50:08.216Z,6.10
2022-07-26T14:52:47.806Z,6.50
2022-07-26T14:55:17.483Z,6.38
2022-07-26T14:57:47.844Z,6.47
2022-07-26T15:00:17.200Z,7.15
2022-07-26T15:02:46.804Z,6.57
2022-07-26T15:05:15.279Z,6.70
2022-07-26T15:07:51.798Z,6.68
2022-07-26T15:10:29.256Z,7.00
2022-07-26T15:13:01.198Z,6.75
2022-07-26T15:15:29.290Z,8.17
2022-07-26T15:17:57.281Z,7.22
2022-07-26T15:20:24.579Z,6.88
2022-07-26T15:22:55.845Z,6.45
2022-07-26T15:25:24.063Z,7.43
2022-07-26T15:27:52.116Z,7.43
2022-07-26T15:30:20.037Z,8.00
2022-07-26T15:32:47.610Z,7.65
2022-07-26T15:35:15.110Z,7.30
2022-07-26T15:37:43.939Z,6.40
2022-07-26T15:40:12.497Z,6.95
2022-07-26T15:42:42.660Z,7.85
2022-07-26T15:45:12.111Z,7.68
2022-07-26T15:48:03.206Z,8.50
2022-07-26T15:50:27.500Z,8.20
2022-07-26T15:52:54.864Z,10.23
2022-07-26T15:55:22.294Z,8.10
2022-07-26T15:57:49.661Z,8.80
2022-07-26T16:00:17.343Z,12.98
2022-07-26T16:02:44.728Z,9.52
2022-07-26T16:05:13.138Z,13.52
2022-07-26T16:07:44.232Z,9.25
2022-07-26T16:10:13.027Z,11.90
2022-07-26T16:12:41.976Z,8.32
2022-07-26T16:15:10.670Z,9.10
2022-07-26T16:17:38.010Z,8.88
2022-07-26T16:20:05.893Z,13.15
2022-07-26T16:22:33.245Z,11.80
2022-07-26T16:25:00.539Z,8.65
2022-07-26T16:27:28.011Z,11.73
2022-07-26T16:29:55.229Z,7.25
2022-07-26T16:32:22.494Z,10.30
2022-07-26T16:34:49.809Z,8.07
2022-07-26T16:37:17.096Z,8.82
2022-07-26T16:39:44.412Z,7.82
2022-07-26T16:42:11.552Z,8.18
2022-07-26T16:44:38.763Z,6.95
2022-07-26T16:47:06.150Z,7.00
2022-07-26T16:49:33.489Z,7.93
2022-07-26T16:52:00.800Z,7.50
2022-07-26T16:54:27.975Z,7.47
2022-07-26T16:56:55.397Z,7.15
2022-07-26T16:59:22.625Z,6.97
2022-07-26T17:01:49.979Z,8.82
2022-07-26T17:04:18.205Z,8.55
2022-07-26T17:07:01.629Z,11.93
2022-07-26T17:09:32.520Z,8.82
2022-07-26T17:12:02.968Z,8.80
2022-07-26T17:14:33.621Z,7.30
2022-07-26T17:17:00.842Z,6.85
2022-07-26T17:19:28.543Z,7.25
2022-07-26T17:21:55.729Z,7.72
2022-07-26T17:24:22.877Z,7.50
2022-07-26T17:26:50.349Z,7.53
2022-07-26T17:29:17.555Z,6.93
2022-07-26T17:31:44.816Z,7.25
2022-07-26T17:34:12.176Z,7.60
2022-07-26T17:36:39.358Z,7.10
2022-07-26T17:39:12.657Z,8.00
2022-07-26T17:41:47.403Z,7.70
2022-07-26T17:44:15.283Z,7.18
2022-07-26T17:46:42.922Z,7.00
2022-07-26T17:49:10.502Z,7.60
2022-07-26T17:51:38.005Z,7.05
2022-07-26T17:54:05.567Z,6.85
2022-07-26T17:56:32.641Z,7.88
2022-07-26T17:59:00.119Z,7.30
2022-07-26T18:01:27.480Z,6.72
2022-07-26T18:03:54.817Z,7.65
2022-07-26T18:06:22.014Z,7.63
2022-07-26T18:08:49.197Z,7.55
2022-07-26T18:11:16.837Z,7.72
2022-07-26T18:13:44.013Z,7.57
2022-07-26T18:16:11.367Z,7.30
2022-07-26T18:18:38.810Z,13.75
2022-07-26T18:21:05.937Z,8.77
2022-07-26T18:23:33.018Z,8.48
2022-07-26T18:26:00.125Z,8.13
2022-07-26T18:28:27.586Z,8.10
2022-07-26T18:30:54.969Z,8.30
2022-07-26T18:33:22.163Z,8.18
2022-07-26T18:35:49.294Z,7.15
2022-07-26T18:38:16.459Z,7.93
2022-07-26T18:40:43.745Z,8.48
2022-07-26T18:43:11.018Z,7.68
2022-07-26T18:45:38.461Z,8.15
2022-07-26T18:48:05.873Z,8.02
2022-07-26T18:50:33.301Z,7.75
2022-07-26T18:53:02.331Z,7.88
2022-07-26T18:55:29.510Z,8.00
2022-07-26T18:57:57.030Z,8.27
2022-07-26T19:00:25.227Z,8.77
2022-07-26T19:02:54.215Z,8.20
2022-07-26T19:05:24.909Z,8.48
2022-07-26T19:07:52.191Z,8.43
2022-07-26T19:10:20.290Z,8.48
2022-07-26T19:12:48.766Z,8.65
2022-07-26T19:15:16.607Z,8.38
2022-07-26T19:17:44.459Z,12.48
2022-07-26T19:20:12.729Z,9.90
2022-07-26T19:22:40.542Z,8.93
2022-07-26T19:25:10.635Z,8.25
2022-07-26T19:27:38.817Z,8.93
2022-07-26T19:30:08.957Z,8.77
2022-07-26T19:32:36.638Z,8.88
2022-07-26T19:35:05.071Z,8.73
2022-07-26T19:37:32.420Z,9.13
2022-07-26T19:40:01.186Z,9.20
2022-07-26T19:42:31.914Z,8.95
2022-07-26T19:45:05.086Z,9.07
2022-07-26T19:47:33.379Z,9.13
2022-07-26T19:50:00.489Z,9.05
2022-07-26T19:52:27.833Z,9.43
2022-07-26T19:54:55.029Z,9.23
2022-07-26T19:57:22.923Z,9.35
2022-07-26T19:59:50.165Z,9.18
2022-07-26T20:02:17.571Z,9.48
2022-07-26T20:04:46.203Z,9.68
2022-07-26T20:07:19.446Z,9.68
2022-07-26T20:09:49.224Z,8.95
2022-07-26T20:12:17.553Z,9.93
2022-07-26T20:14:45.431Z,9.63
2022-07-26T20:17:13.447Z,10.30
2022-07-26T20:19:41.325Z,10.05
2022-07-26T20:22:08.676Z,9.77
2022-07-26T20:24:38.161Z,9.65
2022-07-26T20:27:07.056Z,9.40
2022-07-26T20:29:34.204Z,9.18
2022-07-26T20:32:01.408Z,10.30
2022-07-26T20:34:28.680Z,9.75
2022-07-26T20:36:55.948Z,8.95
2022-07-26T20:42:07.186Z,10.98
2022-07-26T20:44:40.148Z,9.60
2022-07-26T20:47:07.418Z,9.70
2022-07-26T20:49:34.722Z,9.88
2022-07-26T20:52:05.175Z,9.80
2022-07-26T20:54:32.864Z,9.85
2022-07-26T20:56:59.955Z,10.25
2022-07-26T20:59:32.504Z,10.52
2022-07-26T21:01:59.930Z,10.18
2022-07-26T21:04:27.093Z,10.00
2022-07-26T21:06:54.301Z,9.98
2022-07-26T21:09:21.420Z,9.38
2022-07-26T21:11:48.766Z,10.13
2022-07-26T21:14:15.997Z,10.38
2022-07-26T21:16:43.334Z,10.25
2022-07-26T21:19:10.846Z,10.27
2022-07-26T21:21:38.341Z,10.32
2022-07-26T21:24:06.788Z,10.07
2022-07-26T21:26:34.147Z,10.48
2022-07-26T21:29:01.481Z,10.10
2022-07-26T21:31:28.734Z,10.23
2022-07-26T21:33:55.796Z,10.65
2022-07-26T21:36:23.461Z,10.52
2022-07-26T21:38:50.601Z,10.10
2022-07-26T21:41:17.689Z,13.40
2022-07-26T21:43:44.819Z,10.95
2022-07-26T21:46:13.513Z,10.90
2022-07-26T21:48:41.341Z,10.55
2022-07-26T21:51:08.822Z,10.70
2022-07-26T21:53:36.046Z,10.70
2022-07-26T21:56:05.689Z,10.95
2022-07-26T21:58:36.632Z,11.07
2022-07-26T22:01:11.415Z,10.68
2022-07-26T22:03:39.824Z,11.18
2022-07-26T22:06:07.842Z,11.88
2022-07-26T22:08:36.193Z,10.95
2022-07-26T22:11:04.671Z,10.68
2022-07-26T22:13:32.256Z,10.73
2022-07-26T22:15:59.653Z,11.15
2022-07-26T22:18:27.305Z,10.60
2022-07-26T22:20:55.354Z,11.20
2022-07-26T22:23:32.226Z,11.38
2022-07-26T22:26:02.008Z,10.38
2022-07-26T22:28:31.000Z,11.13
2022-07-26T22:30:58.592Z,11.13
2022-07-26T22:33:25.941Z,11.40
2022-07-26T22:35:53.355Z,11.75
2022-07-26T22:38:22.090Z,10.98
2022-07-26T22:40:49.836Z,10.88
2022-07-26T22:43:17.108Z,11.80
2022-07-26T22:45:44.706Z,12.10
2022-07-26T22:48:12.022Z,11.52
2022-07-26T22:50:39.261Z,11.55
2022-07-26T22:53:06.588Z,12.25
2022-07-26T22:55:33.906Z,12.18
2022-07-26T22:58:01.451Z,11.98
2022-07-26T23:00:28.888Z,12.10
2022-07-26T23:02:56.432Z,11.70
2022-07-26T23:05:26.091Z,12.50
2022-07-26T23:10:54.150Z,12.25
2022-07-26T23:13:21.312Z,11.98
2022-07-26T23:15:53.566Z,12.02
2022-07-26T23:18:23.129Z,12.88
2022-07-26T23:20:50.525Z,11.50
2022-07-26T23:23:17.694Z,12.05
2022-07-26T23:25:44.933Z,11.73
2022-07-26T23:28:35.685Z,12.68
2022-07-26T23:31:02.351Z,12.80
2022-07-26T23:33:52.122Z,12.68
2022-07-26T23:36:16.723Z,12.10
2022-07-26T23:38:43.905Z,12.55
2022-07-26T23:41:11.150Z,11.68
2022-07-26T23:43:38.288Z,11.82
2022-07-26T23:46:05.389Z,12.30
2022-07-26T23:48:32.507Z,11.82
2022-07-26T23:50:59.814Z,12.65
2022-07-26T23:53:27.377Z,12.57
2022-07-26T23:55:54.751Z,12.45
2022-07-26T23:58:22.117Z,12.35
